createdAt,value
2018-04-24T00:02:28.059Z,6.33
2018-04-24T00:04:56.483Z,6.90
2018-04-24T00:07:25.132Z,6.30
2018-04-24T00:09:53.667Z,6.60
2018-04-24T00:12:21.992Z,7.20
2018-04-24T00:14:50.345Z,6.77
2018-04-24T00:17:19.541Z,6.50
2018-04-24T00:19:47.860Z,6.93
2018-04-24T00:22:16.360Z,6.93
2018-04-24T00:24:44.762Z,7.93
2018-04-24T00:27:13.252Z,7.23
2018-04-24T00:29:41.867Z,8.27
2018-04-24T00:32:10.943Z,7.43
2018-04-24T00:34:40.151Z,7.97
2018-04-24T00:37:09.277Z,7.40
2018-04-24T00:39:37.614Z,8.53
2018-04-24T00:42:05.940Z,8.63
2018-04-24T00:44:34.543Z,7.80
2018-04-24T00:47:02.847Z,8.90
2018-04-24T00:49:31.250Z,8.70
2018-04-24T00:52:00.100Z,7.57
2018-04-24T00:54:28.421Z,8.77
2018-04-24T00:56:56.751Z,7.70
2018-04-24T00:59:25.263Z,7.87
2018-04-24T01:01:54.444Z,8.23
2018-04-24T01:04:22.908Z,9.20
2018-04-24T01:06:51.636Z,8.23
2018-04-24T01:09:20.696Z,7.80
2018-04-24T01:11:49.022Z,7.50
2018-04-24T01:14:18.515Z,8.37
2018-04-24T01:16:47.628Z,8.63
2018-04-24T01:19:16.364Z,7.60
2018-04-24T01:21:44.720Z,8.70
2018-04-24T01:24:13.048Z,9.70
2018-04-24T01:26:41.345Z,7.90
2018-04-24T01:29:09.775Z,9.47
2018-04-24T01:31:58.657Z,9.00
2018-04-24T01:34:28.052Z,8.53
2018-04-24T01:36:56.380Z,8.60
2018-04-24T01:39:24.749Z,8.20
2018-04-24T01:41:53.143Z,9.37
2018-04-24T01:44:21.450Z,9.40
2018-04-24T01:46:49.820Z,8.70
2018-04-24T01:49:18.166Z,9.10
2018-04-24T01:51:46.512Z,9.47
2018-04-24T01:54:15.637Z,9.40
2018-04-24T01:56:44.170Z,9.03
2018-04-24T01:59:13.212Z,9.70
2018-04-24T02:01:41.529Z,9.20
2018-04-24T02:04:09.907Z,9.80
2018-04-24T02:06:38.323Z,9.80
2018-04-24T02:09:07.416Z,11.50
2018-04-24T02:11:35.755Z,8.53
2018-04-24T02:14:04.080Z,9.80
2018-04-24T02:16:33.187Z,9.30
2018-04-24T02:19:02.516Z,10.00
2018-04-24T02:21:30.875Z,11.33
2018-04-24T02:23:59.212Z,10.40
2018-04-24T02:26:27.932Z,11.13
2018-04-24T02:28:57.019Z,10.40
2018-04-24T02:31:26.135Z,11.70
2018-04-24T02:33:54.520Z,10.47
2018-04-24T02:36:22.873Z,10.30
2018-04-24T02:38:51.983Z,10.40
2018-04-24T02:41:20.546Z,10.77
2018-04-24T02:43:48.872Z,10.80
2018-04-24T02:46:17.204Z,11.50
2018-04-24T02:48:45.591Z,10.70
2018-04-24T02:51:14.035Z,10.40
2018-04-24T02:53:42.388Z,10.57
2018-04-24T02:56:10.777Z,10.90
2018-04-24T02:58:39.855Z,9.47
2018-04-24T03:01:08.187Z,9.40
2018-04-24T03:03:36.674Z,9.70
2018-04-24T03:06:05.020Z,10.30
2018-04-24T03:08:33.372Z,9.83
2018-04-24T03:11:01.735Z,9.90
2018-04-24T03:13:30.871Z,9.30
2018-04-24T03:15:59.974Z,9.63
2018-04-24T03:18:28.305Z,9.50
2018-04-24T03:20:57.398Z,8.97
2018-04-24T03:23:26.506Z,8.67
2018-04-24T03:25:55.491Z,8.73
2018-04-24T03:28:25.143Z,8.40
2018-04-24T03:30:53.483Z,8.77
2018-04-24T03:33:22.616Z,8.93
2018-04-24T03:35:50.963Z,9.40
2018-04-24T03:38:19.333Z,9.23
2018-04-24T03:40:48.460Z,8.20
2018-04-24T03:43:16.806Z,8.23
2018-04-24T03:45:45.900Z,7.80
2018-04-24T03:48:15.298Z,8.23
2018-04-24T03:50:44.404Z,8.73
2018-04-24T03:53:13.472Z,7.90
2018-04-24T03:55:41.803Z,8.10
2018-04-24T03:58:10.155Z,7.83
2018-04-24T04:00:39.240Z,8.03
2018-04-24T04:03:07.597Z,7.90
2018-04-24T04:05:35.942Z,8.30
2018-04-24T04:08:04.279Z,7.83
2018-04-24T04:10:33.606Z,7.67
2018-04-24T04:13:01.961Z,7.63
2018-04-24T04:15:31.043Z,7.53
2018-04-24T04:18:16.930Z,8.80
2018-04-24T04:21:02.889Z,7.43
2018-04-24T04:23:48.851Z,8.80
2018-04-24T04:26:17.203Z,7.80
2018-04-24T04:28:46.626Z,8.30
2018-04-24T04:31:15.432Z,9.10
2018-04-24T04:33:43.755Z,8.37
2018-04-24T04:36:12.069Z,8.60
2018-04-24T04:38:41.198Z,9.07
2018-04-24T04:41:09.537Z,8.47
2018-04-24T04:43:37.895Z,9.10
2018-04-24T04:46:06.268Z,9.20
2018-04-24T04:48:34.627Z,8.20
2018-04-24T04:51:02.955Z,10.00
2018-04-24T04:53:32.297Z,10.20
2018-04-24T04:56:00.663Z,10.07
2018-04-24T04:58:29.056Z,8.87
2018-04-24T05:00:57.471Z,9.63
2018-04-24T05:03:25.814Z,10.10
2018-04-24T05:05:54.187Z,10.73
2018-04-24T05:08:22.575Z,10.80
2018-04-24T05:10:50.913Z,10.40
2018-04-24T05:13:20.016Z,11.30
2018-04-24T05:15:48.470Z,10.40
2018-04-24T05:18:16.814Z,10.37
2018-04-24T05:20:45.199Z,10.50
2018-04-24T05:23:13.589Z,11.93
2018-04-24T05:25:41.909Z,10.83
2018-04-24T05:28:10.224Z,10.20
2018-04-24T05:30:38.821Z,11.20
2018-04-24T05:33:07.146Z,12.70
2018-04-24T05:35:35.505Z,11.60
2018-04-24T05:38:03.999Z,10.80
2018-04-24T05:40:32.329Z,11.40
2018-04-24T05:43:00.670Z,13.57
2018-04-24T05:45:29.890Z,12.67
2018-04-24T05:47:58.213Z,12.30
2018-04-24T05:50:26.560Z,11.77
2018-04-24T05:52:55.006Z,11.87
2018-04-24T05:55:23.282Z,11.73
2018-04-24T05:57:52.525Z,13.47
2018-04-24T06:00:21.163Z,12.20
2018-04-24T06:02:49.553Z,11.30
2018-04-24T06:05:17.883Z,12.03
2018-04-24T06:07:46.245Z,12.57
2018-04-24T06:10:14.608Z,12.97
2018-04-24T06:12:42.952Z,12.57
2018-04-24T06:15:11.397Z,12.60
2018-04-24T06:17:39.643Z,12.40
2018-04-24T06:20:07.967Z,11.47
2018-04-24T06:22:36.610Z,11.60
2018-04-24T06:25:05.730Z,13.43
2018-04-24T06:27:34.078Z,11.93
2018-04-24T06:30:02.507Z,12.30
2018-04-24T06:32:30.844Z,12.83
2018-04-24T06:34:59.215Z,13.40
2018-04-24T06:37:28.386Z,11.97
2018-04-24T06:39:56.722Z,12.53
2018-04-24T06:42:25.065Z,13.43
2018-04-24T06:44:54.683Z,12.77
2018-04-24T06:47:23.018Z,15.10
2018-04-24T06:49:51.364Z,12.77
2018-04-24T06:52:19.707Z,14.37
2018-04-24T06:54:48.806Z,14.30
2018-04-24T06:57:17.165Z,13.90
2018-04-24T06:59:46.342Z,15.57
2018-04-24T07:02:14.728Z,15.27
2018-04-24T07:04:43.089Z,15.67
2018-04-24T07:07:11.812Z,14.43
2018-04-24T07:09:40.172Z,15.37
2018-04-24T07:12:08.543Z,14.40
2018-04-24T07:14:36.899Z,14.67
2018-04-24T07:17:05.258Z,15.73
2018-04-24T07:19:33.621Z,17.40
2018-04-24T07:22:01.977Z,15.43
2018-04-24T07:24:30.403Z,15.60
2018-04-24T07:26:58.783Z,15.80
2018-04-24T07:29:27.362Z,16.00
2018-04-24T07:31:55.727Z,15.27
2018-04-24T07:34:24.826Z,16.00
2018-04-24T07:36:53.937Z,15.97
2018-04-24T07:39:22.301Z,17.10
2018-04-24T07:41:51.455Z,14.90
2018-04-24T07:44:19.876Z,16.37
2018-04-24T07:46:48.997Z,17.10
2018-04-24T07:49:17.317Z,16.33
2018-04-24T07:51:45.869Z,16.90
2018-04-24T07:54:14.245Z,16.50
2018-04-24T07:56:42.622Z,16.60
2018-04-24T07:59:11.037Z,17.40
2018-04-24T08:01:39.410Z,15.73
2018-04-24T08:04:07.938Z,16.40
2018-04-24T08:06:37.093Z,15.67
2018-04-24T08:09:08.209Z,15.90
2018-04-24T08:11:36.559Z,16.23
2018-04-24T08:14:06.209Z,16.43
2018-04-24T08:16:34.649Z,16.70
2018-04-24T08:19:02.943Z,16.00
2018-04-24T08:21:31.335Z,16.97
2018-04-24T08:23:59.680Z,15.90
2018-04-24T08:26:28.768Z,16.20
2018-04-24T08:28:57.144Z,16.30
2018-04-24T08:31:25.832Z,15.73
2018-04-24T08:33:55.000Z,15.77
2018-04-24T08:36:23.724Z,15.90
2018-04-24T08:38:52.064Z,15.80
2018-04-24T08:41:20.431Z,16.67
2018-04-24T08:43:48.820Z,16.27
2018-04-24T08:46:17.174Z,15.90
2018-04-24T08:48:45.503Z,15.03
2018-04-24T08:51:13.888Z,15.17
2018-04-24T08:53:42.250Z,15.97
2018-04-24T08:56:10.606Z,15.83
2018-04-24T08:58:39.265Z,14.90
2018-04-24T09:01:07.689Z,16.20
2018-04-24T09:03:36.040Z,15.07
2018-04-24T09:06:04.462Z,14.37
2018-04-24T09:08:32.853Z,15.50
2018-04-24T09:11:01.201Z,13.47
2018-04-24T09:13:30.336Z,14.60
2018-04-24T09:15:58.682Z,15.00
2018-04-24T09:18:27.000Z,14.13
2018-04-24T09:20:56.609Z,14.33
2018-04-24T09:23:25.135Z,13.50
2018-04-24T09:25:53.483Z,13.77
2018-04-24T09:28:21.899Z,13.80
2018-04-24T09:30:51.004Z,13.47
2018-04-24T09:33:19.464Z,13.33
2018-04-24T09:35:47.846Z,14.50
2018-04-24T09:38:16.231Z,13.77
2018-04-24T09:40:44.601Z,14.30
2018-04-24T09:43:13.165Z,13.67
2018-04-24T09:45:41.532Z,14.23
2018-04-24T09:48:10.656Z,12.97
2018-04-24T09:50:39.048Z,12.33
2018-04-24T09:53:07.386Z,12.33
2018-04-24T09:55:36.501Z,11.70
2018-04-24T09:58:04.863Z,12.83
2018-04-24T10:00:37.036Z,12.87
2018-04-24T10:03:06.358Z,13.17
2018-04-24T10:05:34.719Z,13.10
2018-04-24T10:08:03.801Z,13.47
2018-04-24T10:10:32.939Z,11.97
2018-04-24T10:13:01.310Z,11.20
2018-04-24T10:15:30.403Z,11.50
2018-04-24T10:17:58.788Z,11.67
2018-04-24T10:20:27.149Z,13.00
2018-04-24T10:22:55.580Z,12.50
2018-04-24T10:25:24.363Z,12.37
2018-04-24T10:27:52.664Z,11.60
2018-04-24T10:30:21.025Z,11.90
2018-04-24T10:32:50.179Z,13.07
2018-04-24T10:35:18.930Z,13.00
2018-04-24T10:37:47.356Z,11.90
2018-04-24T10:40:15.811Z,13.10
2018-04-24T10:42:44.103Z,12.87
2018-04-24T10:45:12.453Z,12.90
2018-04-24T10:47:41.099Z,12.00
2018-04-24T10:50:09.432Z,12.83
2018-04-24T10:52:38.560Z,13.80
2018-04-24T10:55:06.954Z,12.27
2018-04-24T10:57:35.294Z,13.33
2018-04-24T11:00:03.632Z,12.57
2018-04-24T11:02:32.016Z,14.70
2018-04-24T11:05:01.129Z,13.77
2018-04-24T11:07:29.460Z,13.33
2018-04-24T11:09:58.092Z,13.83
2018-04-24T11:12:27.282Z,12.73
2018-04-24T11:14:55.616Z,12.33
2018-04-24T11:17:24.070Z,13.40
2018-04-24T11:19:52.414Z,14.27
2018-04-24T11:22:20.724Z,14.37
2018-04-24T11:24:49.832Z,13.77
2018-04-24T11:27:18.936Z,14.97
2018-04-24T11:29:47.285Z,13.70
2018-04-24T11:32:15.886Z,14.07
2018-04-24T11:34:45.013Z,14.30
2018-04-24T11:37:13.339Z,13.60
2018-04-24T11:39:41.724Z,13.73
2018-04-24T11:42:10.823Z,15.27
2018-04-24T11:44:39.954Z,13.77
2018-04-24T11:47:08.318Z,15.70
2018-04-24T11:49:37.441Z,14.40
2018-04-24T11:52:05.779Z,14.83
2018-04-24T11:54:35.128Z,15.37
2018-04-24T11:57:04.313Z,15.57
2018-04-24T11:59:32.602Z,15.20
2018-04-24T12:02:00.980Z,14.53
2018-04-24T12:04:29.359Z,14.53
2018-04-24T12:06:57.706Z,14.83
2018-04-24T12:09:26.869Z,16.77
2018-04-24T12:11:55.264Z,16.03
2018-04-24T12:14:23.601Z,16.67
2018-04-24T12:16:52.256Z,15.47
2018-04-24T12:19:20.608Z,15.47
2018-04-24T12:21:48.926Z,16.57
2018-04-24T12:24:17.288Z,16.27
2018-04-24T12:26:46.392Z,16.80
2018-04-24T12:29:14.717Z,16.40
2018-04-24T12:31:43.121Z,16.60
2018-04-24T12:34:11.479Z,15.27
2018-04-24T12:36:39.845Z,16.90
2018-04-24T12:39:08.689Z,16.57
2018-04-24T12:41:37.046Z,16.77
2018-04-24T12:44:05.389Z,15.70
2018-04-24T12:46:33.803Z,16.27
2018-04-24T12:49:02.158Z,16.23
2018-04-24T12:51:30.466Z,16.87
2018-04-24T12:53:58.844Z,17.13
2018-04-24T12:56:27.187Z,17.07
2018-04-24T12:58:55.545Z,15.13
2018-04-24T13:01:24.220Z,15.50
2018-04-24T13:03:52.662Z,16.70
2018-04-24T13:06:20.938Z,15.57
2018-04-24T13:08:49.327Z,17.50
2018-04-24T13:11:18.447Z,16.73
2018-04-24T13:13:46.899Z,15.80
2018-04-24T13:16:15.283Z,17.83
2018-04-24T13:18:43.632Z,17.90
2018-04-24T13:21:11.995Z,17.00
2018-04-24T13:23:40.583Z,17.60
2018-04-24T13:26:09.036Z,18.30
2018-04-24T13:28:38.138Z,17.67
2018-04-24T13:31:06.519Z,17.60
2018-04-24T13:33:34.841Z,17.43
2018-04-24T13:36:03.193Z,17.40
2018-04-24T13:38:31.970Z,17.70
2018-04-24T13:41:00.301Z,17.37
2018-04-24T13:43:28.622Z,18.27
2018-04-24T13:45:57.141Z,19.50
2018-04-24T13:48:25.487Z,17.97
2018-04-24T13:50:53.816Z,18.77
2018-04-24T13:53:22.189Z,17.50
2018-04-24T13:55:50.525Z,17.30
2018-04-24T13:58:18.867Z,18.00
2018-04-24T14:00:47.310Z,18.30
2018-04-24T14:03:16.368Z,17.80
2018-04-24T14:05:45.482Z,18.07
2018-04-24T14:08:14.251Z,17.33
2018-04-24T14:10:43.352Z,19.00
2018-04-24T14:13:11.666Z,18.70
2018-04-24T14:15:40.038Z,17.27
2018-04-24T14:18:08.367Z,17.50
2018-04-24T14:20:36.710Z,17.23
2018-04-24T14:23:05.072Z,18.53
2018-04-24T14:25:33.446Z,17.87
2018-04-24T14:28:01.791Z,18.93
2018-04-24T14:30:31.141Z,18.90
2018-04-24T14:32:59.500Z,18.73
2018-04-24T14:35:27.868Z,17.80
2018-04-24T14:37:56.236Z,17.90
2018-04-24T14:40:25.632Z,17.57
2018-04-24T14:42:54.734Z,19.50
2018-04-24T14:45:23.868Z,18.97
2018-04-24T14:47:52.209Z,18.70
2018-04-24T14:50:20.545Z,16.70
2018-04-24T14:52:49.004Z,16.77
2018-04-24T14:55:17.367Z,19.13
2018-04-24T14:57:45.688Z,17.37
2018-04-24T15:00:14.043Z,18.07
2018-04-24T15:02:42.406Z,18.07
2018-04-24T15:05:10.779Z,18.77
2018-04-24T15:07:39.166Z,19.50
2018-04-24T15:10:07.496Z,17.70
2018-04-24T15:12:35.860Z,20.57
2018-04-24T15:15:04.714Z,19.17
2018-04-24T15:17:33.098Z,19.73
2018-04-24T15:20:01.434Z,20.13
2018-04-24T15:22:30.571Z,20.70
2018-04-24T15:24:58.928Z,21.03
2018-04-24T15:27:28.083Z,21.43
2018-04-24T15:29:56.464Z,21.87
2018-04-24T15:32:25.572Z,20.33
2018-04-24T15:34:53.989Z,20.80
2018-04-24T15:37:23.270Z,22.60
2018-04-24T15:39:52.379Z,22.70
2018-04-24T15:42:20.707Z,21.20
2018-04-24T15:44:49.081Z,21.07
2018-04-24T15:47:18.202Z,20.83
2018-04-24T15:49:46.545Z,21.37
2018-04-24T15:52:14.926Z,19.93
2018-04-24T15:54:43.254Z,20.30
2018-04-24T15:57:11.616Z,19.30
2018-04-24T15:59:40.421Z,20.33
2018-04-24T16:02:08.799Z,20.40
2018-04-24T16:04:37.110Z,19.93
2018-04-24T16:07:05.467Z,19.93
2018-04-24T16:09:33.840Z,18.37
2018-04-24T16:12:03.029Z,19.60
2018-04-24T16:14:31.439Z,20.80
2018-04-24T16:17:00.537Z,21.80
2018-04-24T16:19:28.955Z,21.93
2018-04-24T16:21:57.804Z,21.20
2018-04-24T16:24:26.179Z,21.60
2018-04-24T16:26:54.580Z,21.63
2018-04-24T16:29:23.023Z,21.50
2018-04-24T16:31:51.392Z,20.90
2018-04-24T16:34:19.728Z,21.77
2018-04-24T16:36:48.489Z,22.67
2018-04-24T16:39:16.828Z,21.43
2018-04-24T16:41:45.172Z,23.30
2018-04-24T16:44:13.735Z,22.47
2018-04-24T16:46:42.090Z,22.40
2018-04-24T16:49:10.426Z,22.43
2018-04-24T16:51:38.835Z,23.63
2018-04-24T16:54:07.143Z,22.33
2018-04-24T16:56:36.279Z,21.97
2018-04-24T16:59:04.679Z,22.73
2018-04-24T17:01:33.029Z,21.43
2018-04-24T17:04:01.477Z,22.30
2018-04-24T17:06:31.112Z,22.60
2018-04-24T17:08:59.463Z,21.70
2018-04-24T17:11:28.561Z,21.80
2018-04-24T17:13:57.690Z,20.90
2018-04-24T17:16:26.050Z,21.40
2018-04-24T17:18:54.409Z,21.63
2018-04-24T17:21:23.558Z,22.80
2018-04-24T17:23:51.911Z,20.50
2018-04-24T17:26:20.268Z,20.93
2018-04-24T17:28:48.856Z,21.73
2018-04-24T17:31:17.952Z,20.30
2018-04-24T17:33:46.316Z,21.90
2018-04-24T17:36:14.759Z,20.30
2018-04-24T17:38:43.075Z,21.20
2018-04-24T17:41:11.432Z,20.83
2018-04-24T17:43:39.942Z,20.63
2018-04-24T17:46:09.035Z,21.07
2018-04-24T17:48:38.173Z,19.93
2018-04-24T17:51:06.689Z,21.77
2018-04-24T17:53:35.081Z,21.10
2018-04-24T17:56:03.428Z,19.80
2018-04-24T17:58:32.801Z,20.20
2018-04-24T18:01:01.912Z,21.40
2018-04-24T18:03:30.262Z,21.83
2018-04-24T18:05:58.687Z,19.20
2018-04-24T18:08:27.028Z,20.83
2018-04-24T18:10:56.117Z,21.90
2018-04-24T18:13:24.846Z,21.03
2018-04-24T18:15:53.205Z,19.30
2018-04-24T18:18:21.529Z,20.90
2018-04-24T18:20:49.909Z,19.63
2018-04-24T18:23:18.213Z,22.23
2018-04-24T18:25:46.582Z,20.77
2018-04-24T18:28:14.973Z,21.90
2018-04-24T18:30:44.099Z,20.90
2018-04-24T18:33:12.501Z,21.53
2018-04-24T18:35:40.960Z,22.20
2018-04-24T18:38:09.328Z,21.47
2018-04-24T18:40:38.445Z,22.40
2018-04-24T18:43:06.812Z,23.37
2018-04-24T18:45:35.443Z,23.83
2018-04-24T18:48:03.800Z,22.60
2018-04-24T18:50:32.227Z,23.27
2018-04-24T18:53:00.564Z,23.57
2018-04-24T18:55:28.951Z,22.73
2018-04-24T18:57:57.466Z,23.90
2018-04-24T19:00:25.815Z,24.97
2018-04-24T19:02:54.153Z,24.97
2018-04-24T19:05:23.299Z,23.67
2018-04-24T19:07:51.711Z,24.47
2018-04-24T19:10:20.200Z,26.13
2018-04-24T19:12:49.346Z,25.53
2018-04-24T19:15:17.727Z,27.27
2018-04-24T19:17:46.073Z,25.77
2018-04-24T19:20:14.740Z,24.90
2018-04-24T19:22:43.840Z,24.07
2018-04-24T19:25:18.345Z,24.67
2018-04-24T19:27:46.707Z,26.40
2018-04-24T19:30:15.035Z,25.10
2018-04-24T19:32:43.450Z,27.27
2018-04-24T19:35:11.872Z,28.80
2018-04-24T19:37:40.242Z,27.17
2018-04-24T19:40:14.361Z,26.83
2018-04-24T19:42:42.702Z,27.97
2018-04-24T19:45:11.047Z,29.10
2018-04-24T19:47:39.433Z,29.77
2018-04-24T19:50:13.335Z,28.20
2018-04-24T19:52:41.751Z,28.13
2018-04-24T19:55:15.576Z,27.70
2018-04-24T19:57:44.135Z,27.30
2018-04-24T20:00:13.232Z,27.80
2018-04-24T20:02:41.636Z,28.53
2018-04-24T20:05:10.091Z,29.37
2018-04-24T20:07:38.497Z,38.30
2018-04-24T20:10:06.902Z,27.90
2018-04-24T20:12:36.085Z,29.90
2018-04-24T20:15:04.467Z,29.07
2018-04-24T20:17:32.887Z,28.93
2018-04-24T20:20:01.571Z,29.37
2018-04-24T20:22:30.725Z,28.30
2018-04-24T20:24:59.062Z,30.63
2018-04-24T20:27:27.423Z,30.57
2018-04-24T20:29:55.763Z,31.07
2018-04-24T20:32:24.242Z,30.23
2018-04-24T20:34:52.533Z,31.07
2018-04-24T20:37:20.912Z,30.83
2018-04-24T20:39:49.249Z,30.70
2018-04-24T20:42:17.715Z,30.20
2018-04-24T20:44:46.066Z,31.87
2018-04-24T20:47:15.274Z,31.57
2018-04-24T20:49:43.627Z,30.17
2018-04-24T20:52:12.005Z,32.83
2018-04-24T20:54:40.365Z,31.83
2018-04-24T20:57:08.745Z,32.87
2018-04-24T20:59:37.166Z,31.93
2018-04-24T21:02:05.526Z,34.17
2018-04-24T21:04:34.030Z,32.47
2018-04-24T21:07:02.372Z,32.30
2018-04-24T21:09:30.713Z,33.07
2018-04-24T21:11:59.066Z,32.90
2018-04-24T21:14:27.426Z,33.67
2018-04-24T21:16:55.802Z,32.33
2018-04-24T21:19:24.174Z,33.17
2018-04-24T21:21:53.336Z,30.73
2018-04-24T21:24:21.723Z,30.10
2018-04-24T21:26:50.256Z,25.57
2018-04-24T21:29:19.355Z,25.93
2018-04-24T21:31:49.364Z,25.03
2018-04-24T21:34:17.755Z,24.60
2018-04-24T21:36:46.899Z,24.40
2018-04-24T21:39:15.218Z,25.07
2018-04-24T21:41:43.580Z,18.80
2018-04-24T21:44:11.937Z,19.63
2018-04-24T21:46:40.287Z,19.67
2018-04-24T21:49:09.147Z,20.17
2018-04-24T21:51:37.490Z,16.60
2018-04-24T21:54:05.965Z,17.00
2018-04-24T21:56:34.343Z,17.37
2018-04-24T21:59:02.698Z,16.63
2018-04-24T22:01:31.049Z,13.77
2018-04-24T22:04:00.292Z,14.30
2018-04-24T22:06:28.650Z,14.10
2018-04-24T22:08:57.060Z,11.90
2018-04-24T22:11:25.744Z,11.53
2018-04-24T22:13:54.097Z,12.77
2018-04-24T22:16:23.179Z,13.67
2018-04-24T22:18:52.353Z,13.43
2018-04-24T22:21:20.709Z,13.00
2018-04-24T22:23:49.039Z,11.97
2018-04-24T22:26:18.175Z,12.93
2018-04-24T22:28:46.520Z,12.30
2018-04-24T22:31:14.892Z,12.73
2018-04-24T22:33:44.068Z,14.33
2018-04-24T22:36:12.455Z,13.47
2018-04-24T22:38:41.599Z,13.80
2018-04-24T22:41:10.107Z,14.83
2018-04-24T22:43:38.465Z,14.03
2018-04-24T22:46:06.800Z,15.97
2018-04-24T22:48:35.931Z,15.97
2018-04-24T22:51:04.563Z,15.00
2018-04-24T22:53:32.911Z,14.43
2018-04-24T22:56:01.500Z,15.53
2018-04-24T22:58:29.820Z,14.90
2018-04-24T23:00:58.140Z,15.00
2018-04-24T23:03:26.523Z,15.93
2018-04-24T23:05:54.880Z,16.53
2018-04-24T23:08:23.261Z,18.50
2018-04-24T23:11:09.511Z,16.70
2018-04-24T23:13:55.399Z,17.30
2018-04-24T23:16:41.224Z,16.90
2018-04-24T23:19:27.901Z,17.83
2018-04-24T23:21:55.524Z,19.80
2018-04-24T23:24:23.877Z,18.30
2018-04-24T23:26:52.955Z,20.30
2018-04-24T23:29:21.957Z,20.30
2018-04-24T23:31:50.313Z,21.00
2018-04-24T23:34:18.636Z,21.90
2018-04-24T23:36:46.985Z,22.23
2018-04-24T23:39:15.326Z,24.30
2018-04-24T23:41:43.659Z,23.87
2018-04-24T23:44:12.020Z,23.90
2018-04-24T23:46:40.377Z,26.43
2018-04-24T23:49:08.700Z,26.90
2018-04-24T23:51:37.256Z,29.13
2018-04-24T23:54:05.602Z,32.00
2018-04-24T23:56:35.639Z,31.00
2018-04-24T23:59:04.000Z,31.73
